createdAt,value
2022-09-24T00:00:24.594Z,14.10
2022-09-24T00:02:57.659Z,14.20
2022-09-24T00:06:01.468Z,14.20
2022-09-24T00:08:55.954Z,14.30
2022-09-24T00:11:24.848Z,14.40
2022-09-24T00:13:54.778Z,14.40
2022-09-24T00:16:26.000Z,14.40
2022-09-24T00:18:54.829Z,14.40
2022-09-24T00:21:48.379Z,14.30
2022-09-24T00:24:38.147Z,14.30
2022-09-24T00:27:06.670Z,14.40
2022-09-24T00:29:36.618Z,14.40
2022-09-24T00:32:05.089Z,14.40
2022-09-24T00:34:37.214Z,14.40
2022-09-24T00:37:05.065Z,14.20
2022-09-24T00:39:32.911Z,14.10
2022-09-24T00:41:59.896Z,14.00
2022-09-24T00:45:04.588Z,13.90
2022-09-24T00:47:39.151Z,13.90
2022-09-24T00:50:31.570Z,13.80
2022-09-24T00:53:33.416Z,13.70
2022-09-24T00:56:03.721Z,13.70
2022-09-24T00:58:31.894Z,13.70
2022-09-24T01:01:05.917Z,13.70
2022-09-24T01:03:40.985Z,13.70
2022-09-24T01:06:09.149Z,13.60
2022-09-24T01:08:36.045Z,13.60
2022-09-24T01:11:06.690Z,13.50
2022-09-24T01:14:11.172Z,13.50
2022-09-24T01:16:45.694Z,13.50
2022-09-24T01:19:41.873Z,13.50
2022-09-24T01:22:15.868Z,13.50
2022-09-24T01:25:02.408Z,13.50
2022-09-24T01:27:57.664Z,13.50
2022-09-24T01:30:28.132Z,13.50
2022-09-24T01:33:00.137Z,13.50
2022-09-24T01:35:35.005Z,13.50
2022-09-24T01:38:06.420Z,13.50
2022-09-24T01:40:36.691Z,13.60
2022-09-24T01:43:05.495Z,13.60
2022-09-24T01:45:37.236Z,13.60
2022-09-24T01:48:06.678Z,13.60
2022-09-24T01:50:58.385Z,13.60
2022-09-24T01:53:39.790Z,13.60
2022-09-24T01:56:24.007Z,13.60
2022-09-24T01:59:09.503Z,13.60
2022-09-24T02:01:45.332Z,13.50
2022-09-24T02:04:16.858Z,13.50
2022-09-24T02:07:00.208Z,13.60
2022-09-24T02:09:36.800Z,13.60
2022-09-24T02:12:22.875Z,13.60
2022-09-24T02:14:56.770Z,13.60
2022-09-24T02:17:27.757Z,13.60
2022-09-24T02:19:58.398Z,13.70
2022-09-24T02:22:25.948Z,13.60
2022-09-24T02:24:57.223Z,13.60
2022-09-24T02:27:30.860Z,13.60
2022-09-24T02:30:01.019Z,13.70
2022-09-24T02:32:32.391Z,13.70
2022-09-24T02:35:06.274Z,13.70
2022-09-24T02:37:39.423Z,13.70
2022-09-24T02:40:09.034Z,13.70
2022-09-24T02:42:36.546Z,13.70
2022-09-24T02:45:05.597Z,13.70
2022-09-24T02:47:33.143Z,13.70
2022-09-24T02:50:01.146Z,13.70
2022-09-24T02:52:28.300Z,13.70
2022-09-24T02:54:55.181Z,13.80
2022-09-24T02:57:23.057Z,13.80
2022-09-24T02:59:53.076Z,13.70
2022-09-24T03:02:21.374Z,13.60
2022-09-24T03:04:52.268Z,13.50
2022-09-24T03:07:21.975Z,13.50
2022-09-24T03:09:50.028Z,13.40
2022-09-24T03:12:16.928Z,13.40
2022-09-24T03:14:43.845Z,13.50
2022-09-24T03:17:11.770Z,13.50
2022-09-24T03:19:38.673Z,13.50
2022-09-24T03:22:05.739Z,13.40
2022-09-24T03:24:57.739Z,13.40
2022-09-24T03:27:27.777Z,13.30
2022-09-24T03:30:14.304Z,13.30
2022-09-24T03:32:42.191Z,13.30
2022-09-24T03:35:11.946Z,13.30
2022-09-24T03:37:45.869Z,13.30
2022-09-24T03:40:17.841Z,13.30
2022-09-24T03:42:45.772Z,13.30
2022-09-24T03:45:13.621Z,13.30
2022-09-24T03:47:42.639Z,13.30
2022-09-24T03:50:11.638Z,13.30
2022-09-24T03:52:43.903Z,13.30
2022-09-24T03:55:10.656Z,13.40
2022-09-24T03:57:38.539Z,13.30
2022-09-24T04:00:06.840Z,13.30
2022-09-24T04:02:36.849Z,13.30
2022-09-24T04:05:03.952Z,13.30
2022-09-24T04:07:32.936Z,13.30
2022-09-24T04:10:01.007Z,13.30
2022-09-24T04:12:30.245Z,13.30
2022-09-24T04:14:57.344Z,13.20
2022-09-24T04:17:31.277Z,13.30
2022-09-24T04:19:59.325Z,13.20
2022-09-24T04:22:29.188Z,13.20
2022-09-24T04:24:59.603Z,13.20
2022-09-24T04:27:36.662Z,13.20
2022-09-24T04:30:05.027Z,13.20
2022-09-24T04:32:32.909Z,13.20
2022-09-24T04:35:05.369Z,13.20
2022-09-24T04:37:36.388Z,13.20
2022-09-24T04:40:06.042Z,13.20
2022-09-24T04:42:32.986Z,13.20
2022-09-24T04:45:00.017Z,13.20
2022-09-24T04:47:29.986Z,13.30
2022-09-24T04:50:02.681Z,13.30
2022-09-24T04:52:33.500Z,13.30
2022-09-24T04:55:01.127Z,13.30
2022-09-24T04:57:34.952Z,13.20
2022-09-24T05:00:04.139Z,13.20
2022-09-24T05:02:31.582Z,13.20
2022-09-24T05:04:58.717Z,13.20
2022-09-24T05:07:26.416Z,13.20
2022-09-24T05:09:53.542Z,13.20
2022-09-24T05:12:23.574Z,13.20
2022-09-24T05:14:51.459Z,13.20
2022-09-24T05:17:21.528Z,13.20
2022-09-24T05:19:53.637Z,13.20
2022-09-24T05:22:21.816Z,13.20
2022-09-24T05:26:00.288Z,13.20
2022-09-24T05:28:28.612Z,13.20
2022-09-24T05:31:02.518Z,13.20
2022-09-24T05:33:33.165Z,13.30
2022-09-24T05:36:01.398Z,13.30
2022-09-24T05:38:30.091Z,13.20
2022-09-24T05:41:01.232Z,13.30
2022-09-24T05:43:31.839Z,13.30
2022-09-24T05:45:59.009Z,13.30
2022-09-24T05:48:28.259Z,13.20
2022-09-24T05:50:56.485Z,13.20
2022-09-24T05:53:24.778Z,13.30
2022-09-24T05:55:51.748Z,13.30
2022-09-24T05:58:20.433Z,13.20
2022-09-24T06:00:48.626Z,13.20
2022-09-24T06:03:20.036Z,13.30
2022-09-24T06:05:50.262Z,13.30
2022-09-24T06:08:19.648Z,13.30
2022-09-24T06:10:48.698Z,13.30
2022-09-24T06:13:18.727Z,13.20
2022-09-24T06:15:48.837Z,13.30
2022-09-24T06:18:17.013Z,13.20
2022-09-24T06:20:47.160Z,13.30
2022-09-24T06:23:15.254Z,13.20
2022-09-24T06:25:43.350Z,13.20
2022-09-24T06:28:10.482Z,13.20
2022-09-24T06:30:41.361Z,13.30
2022-09-24T06:33:12.790Z,13.30
2022-09-24T06:35:44.531Z,13.40
2022-09-24T06:38:16.945Z,13.40
2022-09-24T06:40:51.472Z,13.50
2022-09-24T06:43:19.514Z,13.50
2022-09-24T06:45:46.532Z,13.40
2022-09-24T06:48:41.433Z,13.40
2022-09-24T06:51:08.731Z,13.50
2022-09-24T06:53:36.753Z,13.40
2022-09-24T06:56:04.333Z,13.40
2022-09-24T06:58:31.414Z,13.50
2022-09-24T07:01:01.672Z,13.50
2022-09-24T07:03:34.147Z,13.50
2022-09-24T07:06:05.193Z,13.50
2022-09-24T07:08:32.581Z,13.50
2022-09-24T07:11:02.714Z,13.50
2022-09-24T07:13:32.833Z,13.50
2022-09-24T07:16:05.187Z,13.50
2022-09-24T07:18:32.130Z,13.50
2022-09-24T07:21:00.073Z,13.50
2022-09-24T07:23:28.119Z,13.50
2022-09-24T07:26:48.195Z,13.50
2022-09-24T07:29:16.265Z,13.50
2022-09-24T07:31:43.395Z,13.50
2022-09-24T07:34:14.249Z,13.50
2022-09-24T07:36:44.222Z,13.50
2022-09-24T07:39:11.161Z,13.50
2022-09-24T07:41:42.177Z,13.50
2022-09-24T07:44:10.503Z,13.50
2022-09-24T07:46:38.526Z,13.50
2022-09-24T07:49:05.959Z,13.50
2022-09-24T07:51:32.931Z,13.50
2022-09-24T07:54:01.243Z,13.50
2022-09-24T07:56:32.006Z,13.50
2022-09-24T07:58:59.985Z,13.50
2022-09-24T08:01:28.069Z,13.60
2022-09-24T08:03:56.003Z,13.50
2022-09-24T08:06:23.294Z,13.70
2022-09-24T08:08:53.075Z,13.70
2022-09-24T08:11:21.436Z,13.80
2022-09-24T08:13:49.378Z,13.90
2022-09-24T08:16:16.662Z,13.90
2022-09-24T08:18:44.108Z,13.90
2022-09-24T08:21:13.298Z,14.00
2022-09-24T08:23:43.691Z,14.10
2022-09-24T08:26:12.668Z,14.00
2022-09-24T08:28:42.139Z,14.10
2022-09-24T08:31:12.878Z,14.10
2022-09-24T08:33:40.209Z,14.10
2022-09-24T08:36:10.831Z,14.10
2022-09-24T08:38:38.936Z,14.00
2022-09-24T08:41:12.238Z,14.10
2022-09-24T08:44:04.035Z,14.00
2022-09-24T08:47:06.380Z,14.00
2022-09-24T08:49:49.694Z,14.00
2022-09-24T08:52:44.005Z,14.00
2022-09-24T08:55:33.978Z,14.00
2022-09-24T08:58:08.898Z,13.90
2022-09-24T09:01:04.641Z,13.90
2022-09-24T09:03:49.403Z,13.90
2022-09-24T09:06:36.162Z,13.90
2022-09-24T09:09:20.245Z,13.80
2022-09-24T09:11:52.060Z,13.90
2022-09-24T09:14:58.756Z,13.90
2022-09-24T09:17:56.803Z,13.90
2022-09-24T09:20:45.881Z,14.10
2022-09-24T09:23:17.117Z,14.20
2022-09-24T09:26:03.080Z,14.20
2022-09-24T09:28:30.181Z,14.10
2022-09-24T09:30:58.936Z,14.10
2022-09-24T09:33:42.356Z,14.20
2022-09-24T09:36:31.973Z,14.20
2022-09-24T09:39:37.577Z,14.20
2022-09-24T09:42:26.044Z,14.30
2022-09-24T09:44:54.496Z,14.30
2022-09-24T09:47:40.859Z,14.40
2022-09-24T09:50:35.932Z,14.40
2022-09-24T09:53:05.017Z,14.30
2022-09-24T09:55:37.348Z,14.40
2022-09-24T09:58:20.137Z,14.40
2022-09-24T10:00:50.055Z,14.40
2022-09-24T10:03:33.781Z,14.40
2022-09-24T10:06:03.383Z,14.40
2022-09-24T10:08:30.647Z,14.40
2022-09-24T10:11:03.440Z,14.50
2022-09-24T10:13:33.935Z,14.50
2022-09-24T10:16:04.877Z,14.50
2022-09-24T10:18:39.030Z,14.40
2022-09-24T10:21:12.155Z,14.50
2022-09-24T10:23:44.384Z,14.50
2022-09-24T10:26:13.550Z,14.40
2022-09-24T10:29:16.574Z,14.40
2022-09-24T10:31:49.250Z,14.40
2022-09-24T10:34:26.842Z,14.20
2022-09-24T10:37:13.662Z,14.30
2022-09-24T10:39:42.915Z,14.20
2022-09-24T10:42:32.483Z,14.30
2022-09-24T10:45:02.713Z,14.30
2022-09-24T10:48:05.062Z,14.20
2022-09-24T10:50:45.982Z,14.20
2022-09-24T10:53:42.169Z,14.30
2022-09-24T10:56:43.605Z,14.20
2022-09-24T10:59:21.301Z,14.20
2022-09-24T11:01:54.671Z,14.20
2022-09-24T11:04:39.855Z,14.30
2022-09-24T11:07:49.108Z,14.30
2022-09-24T11:10:27.995Z,14.30
2022-09-24T11:13:17.254Z,14.30
2022-09-24T11:16:02.803Z,14.40
2022-09-24T11:18:36.642Z,14.40
2022-09-24T11:21:12.289Z,14.50
2022-09-24T11:23:56.354Z,14.60
2022-09-24T11:26:33.166Z,14.70
2022-09-24T11:29:37.133Z,14.90
2022-09-24T11:32:20.186Z,14.70
2022-09-24T11:34:59.310Z,14.90
2022-09-24T11:38:03.734Z,14.90
2022-09-24T11:41:03.558Z,14.90
2022-09-24T11:44:11.367Z,14.90
2022-09-24T11:47:01.504Z,15.00
2022-09-24T11:49:42.541Z,15.00
2022-09-24T11:52:15.320Z,14.90
2022-09-24T11:55:23.723Z,15.20
2022-09-24T11:58:04.820Z,15.20
2022-09-24T12:00:40.584Z,15.20
2022-09-24T12:03:26.289Z,15.20
2022-09-24T12:06:15.119Z,15.30
2022-09-24T12:08:45.937Z,15.40
2022-09-24T12:11:36.768Z,15.30
2022-09-24T12:14:26.683Z,15.40
2022-09-24T12:17:02.811Z,15.40
2022-09-24T12:19:42.050Z,15.50
2022-09-24T12:22:12.064Z,15.70
2022-09-24T12:24:57.035Z,15.70
2022-09-24T12:27:33.391Z,15.40
2022-09-24T12:30:57.441Z,15.30
2022-09-24T12:33:43.355Z,15.10
2022-09-24T12:36:21.649Z,14.90
2022-09-24T12:38:54.259Z,14.80
2022-09-24T12:41:25.007Z,14.90
2022-09-24T12:44:11.097Z,15.10
2022-09-24T12:46:56.799Z,15.00
2022-09-24T12:49:26.858Z,15.00
2022-09-24T12:52:00.705Z,14.90
2022-09-24T12:54:38.578Z,15.00
2022-09-24T12:57:21.350Z,15.00
2022-09-24T13:00:05.873Z,15.00
2022-09-24T13:02:47.693Z,14.90
2022-09-24T13:05:23.720Z,14.90
2022-09-24T13:07:58.329Z,15.00
2022-09-24T13:10:30.292Z,14.90
2022-09-24T13:13:00.359Z,14.90
2022-09-24T13:15:35.153Z,14.90
2022-09-24T13:18:07.009Z,15.00
2022-09-24T13:20:35.072Z,14.90
2022-09-24T13:23:31.707Z,14.90
2022-09-24T13:26:05.159Z,14.80
2022-09-24T13:28:38.747Z,14.80
2022-09-24T13:31:13.331Z,14.80
2022-09-24T13:33:45.497Z,15.00
2022-09-24T13:36:40.528Z,14.90
2022-09-24T13:39:33.690Z,14.80
2022-09-24T13:42:43.338Z,14.70
2022-09-24T13:45:17.035Z,15.00
2022-09-24T13:47:53.400Z,15.20
2022-09-24T13:50:28.942Z,15.40
2022-09-24T13:53:02.371Z,15.50
2022-09-24T13:55:45.061Z,15.60
2022-09-24T13:58:41.148Z,15.70
2022-09-24T14:01:24.425Z,15.50
2022-09-24T14:04:18.682Z,15.40
2022-09-24T14:06:53.611Z,15.50
2022-09-24T14:09:23.592Z,15.60
2022-09-24T14:11:53.794Z,15.60
2022-09-24T14:14:24.509Z,15.70
2022-09-24T14:16:55.715Z,15.80
2022-09-24T14:19:23.702Z,16.00
2022-09-24T14:21:55.168Z,16.00
2022-09-24T14:24:54.078Z,16.10
2022-09-24T14:27:23.531Z,16.10
2022-09-24T14:30:04.144Z,16.00
2022-09-24T14:32:42.456Z,16.00
2022-09-24T14:35:25.494Z,16.00
2022-09-24T14:38:14.009Z,15.90
2022-09-24T14:40:57.816Z,15.80
2022-09-24T14:43:45.360Z,15.80
2022-09-24T14:46:23.369Z,15.70
2022-09-24T14:48:52.286Z,15.70
2022-09-24T14:51:30.766Z,15.80
2022-09-24T14:54:00.203Z,15.80
2022-09-24T14:56:31.749Z,15.90
2022-09-24T14:59:02.093Z,16.00
2022-09-24T15:01:33.706Z,15.90
2022-09-24T15:04:05.578Z,15.90
2022-09-24T15:06:35.586Z,15.90
2022-09-24T15:09:26.185Z,15.90
2022-09-24T15:11:55.518Z,15.90
2022-09-24T15:14:27.726Z,15.80
2022-09-24T15:16:55.387Z,15.80
2022-09-24T15:19:24.435Z,15.80
2022-09-24T15:21:59.135Z,15.90
2022-09-24T15:24:26.330Z,15.90
2022-09-24T15:27:21.377Z,15.80
2022-09-24T15:29:48.693Z,15.70
2022-09-24T15:32:19.006Z,15.70
2022-09-24T15:34:46.744Z,15.70
2022-09-24T15:37:20.164Z,15.70
2022-09-24T15:39:49.799Z,15.70
2022-09-24T15:42:25.378Z,15.70
2022-09-24T15:44:54.622Z,15.80
2022-09-24T15:47:23.285Z,15.80
2022-09-24T15:49:50.215Z,15.90
2022-09-24T15:52:25.254Z,15.90
2022-09-24T15:54:58.641Z,15.90
2022-09-24T15:57:27.181Z,15.90
2022-09-24T15:59:56.185Z,15.90
2022-09-24T16:02:33.468Z,15.90
2022-09-24T16:05:03.825Z,15.90
2022-09-24T16:07:31.380Z,16.00
2022-09-24T16:09:58.381Z,16.10
2022-09-24T16:12:28.368Z,16.10
2022-09-24T16:14:59.116Z,16.00
2022-09-24T16:17:28.108Z,16.10
2022-09-24T16:19:55.036Z,16.10
2022-09-24T16:22:25.379Z,16.10
2022-09-24T16:24:52.275Z,16.10
2022-09-24T16:27:20.155Z,16.10
2022-09-24T16:29:47.172Z,15.90
2022-09-24T16:32:14.387Z,15.90
2022-09-24T16:34:42.391Z,15.90
2022-09-24T16:37:10.601Z,16.00
2022-09-24T16:39:37.543Z,16.00
2022-09-24T16:42:05.960Z,16.00
2022-09-24T16:44:33.044Z,15.90
2022-09-24T16:47:00.115Z,15.90
2022-09-24T16:49:27.733Z,15.80
2022-09-24T16:51:55.914Z,15.70
2022-09-24T16:54:23.131Z,15.70
2022-09-24T16:56:52.123Z,15.70
2022-09-24T16:59:19.410Z,15.60
2022-09-24T17:01:46.289Z,15.60
2022-09-24T17:04:13.393Z,15.40
2022-09-24T17:06:44.486Z,15.30
2022-09-24T17:09:31.987Z,15.40
2022-09-24T17:12:01.503Z,15.40
2022-09-24T17:14:29.371Z,15.30
2022-09-24T17:16:56.503Z,15.30
2022-09-24T17:19:23.386Z,15.20
2022-09-24T17:21:50.422Z,15.20
2022-09-24T17:24:21.388Z,14.90
2022-09-24T17:26:50.316Z,14.90
2022-09-24T17:29:20.839Z,14.90
2022-09-24T17:31:49.420Z,14.90
2022-09-24T17:34:16.734Z,14.90
2022-09-24T17:36:43.731Z,14.90
2022-09-24T17:39:13.081Z,14.90
2022-09-24T17:41:40.074Z,14.90
2022-09-24T17:44:07.247Z,14.90
2022-09-24T17:46:36.058Z,14.80
2022-09-24T17:49:03.660Z,14.80
2022-09-24T17:51:36.414Z,14.70
2022-09-24T17:54:13.802Z,14.80
2022-09-24T17:56:42.127Z,14.70
2022-09-24T17:59:12.972Z,14.70
2022-09-24T18:01:43.002Z,14.70
2022-09-24T18:04:12.745Z,14.70
2022-09-24T18:06:41.684Z,14.70
2022-09-24T18:09:11.345Z,14.80
2022-09-24T18:11:41.455Z,14.80
2022-09-24T18:14:16.878Z,14.80
2022-09-24T18:16:45.132Z,14.90
2022-09-24T18:19:17.176Z,14.90
2022-09-24T18:21:46.228Z,14.90
2022-09-24T18:24:14.465Z,14.90
2022-09-24T18:26:41.690Z,14.90
2022-09-24T18:29:14.308Z,14.90
2022-09-24T18:31:41.489Z,15.00
2022-09-24T18:34:11.176Z,15.00
2022-09-24T18:36:41.257Z,14.80
2022-09-24T18:39:13.570Z,14.70
2022-09-24T18:41:43.492Z,14.80
2022-09-24T18:44:11.512Z,14.80
2022-09-24T18:46:40.084Z,14.80
2022-09-24T18:49:08.346Z,14.90
2022-09-24T18:51:38.634Z,14.80
2022-09-24T18:54:14.019Z,14.90
2022-09-24T18:56:42.609Z,14.90
2022-09-24T18:59:16.275Z,14.90
2022-09-24T19:01:46.967Z,14.90
2022-09-24T19:04:16.183Z,14.90
2022-09-24T19:06:45.349Z,14.80
2022-09-24T19:09:18.093Z,14.80
2022-09-24T19:11:45.841Z,14.80
2022-09-24T19:14:15.058Z,14.70
2022-09-24T19:16:43.110Z,14.80
2022-09-24T19:19:11.352Z,14.70
2022-09-24T19:21:40.576Z,14.60
2022-09-24T19:24:09.924Z,14.50
2022-09-24T19:26:37.518Z,14.50
2022-09-24T19:29:06.588Z,14.60
2022-09-24T19:31:37.531Z,14.60
2022-09-24T19:34:10.717Z,14.60
2022-09-24T19:36:43.712Z,14.60
2022-09-24T19:39:13.074Z,14.50
2022-09-24T19:41:39.976Z,14.40
2022-09-24T19:44:09.086Z,14.30
2022-09-24T19:46:37.205Z,14.20
2022-09-24T19:49:05.868Z,14.20
2022-09-24T19:51:35.039Z,14.20
2022-09-24T19:54:04.476Z,14.10
2022-09-24T19:56:32.005Z,14.10
2022-09-24T19:59:04.559Z,14.10
2022-09-24T20:01:33.664Z,14.10
2022-09-24T20:04:05.393Z,14.00
2022-09-24T20:06:34.180Z,14.10
2022-09-24T20:09:10.521Z,14.10
2022-09-24T20:11:37.560Z,14.10
2022-09-24T20:14:11.388Z,14.20
2022-09-24T20:16:42.869Z,14.20
2022-09-24T20:19:12.133Z,14.20
2022-09-24T20:21:45.113Z,14.10
2022-09-24T20:24:18.778Z,14.20
2022-09-24T20:27:06.284Z,14.30
2022-09-24T20:29:34.325Z,14.40
2022-09-24T20:32:04.355Z,14.40
2022-09-24T20:34:35.862Z,14.30
2022-09-24T20:37:05.815Z,14.30
2022-09-24T20:39:33.059Z,14.30
2022-09-24T20:42:05.912Z,14.30
2022-09-24T20:44:33.940Z,14.20
2022-09-24T20:47:01.210Z,14.20
2022-09-24T20:49:29.994Z,14.20
2022-09-24T20:51:58.006Z,14.30
2022-09-24T20:54:28.690Z,14.30
2022-09-24T20:56:56.193Z,14.40
2022-09-24T20:59:25.741Z,14.30
2022-09-24T21:01:54.633Z,14.30
2022-09-24T21:04:35.039Z,14.30
2022-09-24T21:07:02.302Z,14.50
2022-09-24T21:09:30.173Z,14.40
2022-09-24T21:11:58.975Z,14.40
2022-09-24T21:14:27.821Z,14.40
2022-09-24T21:16:56.439Z,14.40
2022-09-24T21:19:26.103Z,14.50
2022-09-24T21:21:54.222Z,14.50
2022-09-24T21:24:31.145Z,14.50
2022-09-24T21:26:59.421Z,14.40
2022-09-24T21:29:30.556Z,14.40
2022-09-24T21:31:59.815Z,14.40
2022-09-24T21:34:28.038Z,14.40
2022-09-24T21:36:56.068Z,14.40
2022-09-24T21:39:28.975Z,14.50
2022-09-24T21:41:59.216Z,14.40
2022-09-24T21:44:31.884Z,14.50
2022-09-24T21:46:58.912Z,14.60
2022-09-24T21:49:28.286Z,14.50
2022-09-24T21:51:57.579Z,14.40
2022-09-24T21:54:24.617Z,14.30
2022-09-24T21:56:54.282Z,14.40
2022-09-24T21:59:40.279Z,14.40
2022-09-24T22:02:08.590Z,14.40
2022-09-24T22:04:36.100Z,14.40
2022-09-24T22:07:03.247Z,14.50
2022-09-24T22:09:32.165Z,14.30
2022-09-24T22:12:00.878Z,14.40
2022-09-24T22:14:27.958Z,14.40
2022-09-24T22:16:56.231Z,14.40
2022-09-24T22:19:24.118Z,14.50
2022-09-24T22:21:52.344Z,14.40
2022-09-24T22:24:19.702Z,14.40
2022-09-24T22:26:46.717Z,14.40
2022-09-24T22:29:13.701Z,14.50
2022-09-24T22:31:41.690Z,14.50
2022-09-24T22:34:29.034Z,14.40
2022-09-24T22:36:57.455Z,14.50
2022-09-24T22:39:25.396Z,14.50
2022-09-24T22:41:52.662Z,14.40
2022-09-24T22:44:19.570Z,14.40
2022-09-24T22:46:46.522Z,14.30
2022-09-24T22:49:16.030Z,14.40
2022-09-24T22:51:42.872Z,14.40
2022-09-24T22:54:10.413Z,14.30
2022-09-24T22:56:37.914Z,14.30
2022-09-24T22:59:05.179Z,14.40
2022-09-24T23:01:34.997Z,14.50
2022-09-24T23:04:08.065Z,14.50
2022-09-24T23:06:36.963Z,14.50
2022-09-24T23:09:05.145Z,14.30
2022-09-24T23:11:34.634Z,14.20
2022-09-24T23:14:06.476Z,14.30
2022-09-24T23:16:36.171Z,14.30
2022-09-24T23:19:12.407Z,14.20
2022-09-24T23:21:42.804Z,14.20
2022-09-24T23:24:17.568Z,14.20
2022-09-24T23:26:45.527Z,14.20
2022-09-24T23:29:13.535Z,14.20
2022-09-24T23:31:40.634Z,14.20
2022-09-24T23:34:08.657Z,14.20
2022-09-24T23:36:36.230Z,14.40
2022-09-24T23:39:07.770Z,14.30
2022-09-24T23:41:34.821Z,14.30
2022-09-24T23:44:04.163Z,14.30
2022-09-24T23:46:33.790Z,14.20
2022-09-24T23:49:01.068Z,14.20
2022-09-24T23:51:30.012Z,14.20
2022-09-24T23:53:57.085Z,14.30
2022-09-24T23:56:24.256Z,14.20
2022-09-24T23:58:51.130Z,14.20
